Time;durP1;ratioP1;P1;durP2;ratioP2;P2;SDS_P1;SDS_P2;PMS_P1;PMS_P2;Temp;Humidity;BMP_temperature;BMP_pressure;BME280_temperature;BME280_humidity;BME280_pressure;Samples;Min_cycle;Max_cycle;Signal;HPM_P1;HPM_P2
2023/01/04 00:00:27;;;;;;;25.35;11.82;;;;;;;;;;8302220;28;20505;-87
2023/01/04 00:04:49;;;;;;;34.55;12.02;;;;;;;;;;8283969;28;20132;-87
2023/01/04 00:08:54;;;;;;;28.20;11.32;;;;;;;;;;8302137;28;20052;-87
2023/01/04 00:12:57;;;;;;;26.80;11.55;;;;;;;;;;8301893;28;20050;-87
2023/01/04 00:16:59;;;;;;;25.50;11.00;;;;;;;;;;8301821;28;20124;-88
2023/01/04 00:21:11;;;;;;;61.08;25.38;;;;;;;;;;8301773;28;20509;-87
2023/01/04 00:25:16;;;;;;;160.05;65.53;;;;;;;;;;8301543;28;20121;-87
2023/01/04 00:29:18;;;;;;;128.60;53.33;;;;;;;;;;8301394;28;20095;-87
2023/01/04 00:33:21;;;;;;;40.42;15.82;;;;;;;;;;8289252;28;20046;-87
2023/01/04 00:37:24;;;;;;;26.58;12.43;;;;;;;;;;8301283;28;20073;-87
2023/01/04 00:41:28;;;;;;;28.30;13.10;;;;;;;;;;8287471;28;20121;-88
2023/01/04 00:45:31;;;;;;;27.63;11.85;;;;;;;;;;8276911;28;20050;-88
2023/01/04 00:49:33;;;;;;;29.17;12.10;;;;;;;;;;8297816;28;20037;-87
2023/01/04 00:53:36;;;;;;;36.00;15.13;;;;;;;;;;8299264;28;20037;-88
2023/01/04 00:57:40;;;;;;;34.38;17.10;;;;;;;;;;8298688;28;20041;-88
2023/01/04 01:01:44;;;;;;;47.03;21.48;;;;;;;;;;8298954;28;20132;-87
2023/01/04 01:05:46;;;;;;;56.65;26.42;;;;;;;;;;8300323;28;20044;-87
2023/01/04 01:09:49;;;;;;;31.52;14.25;;;;;;;;;;8300353;28;20050;-88
2023/01/04 01:13:54;;;;;;;28.45;14.30;;;;;;;;;;8299990;28;20049;-88
2023/01/04 01:17:56;;;;;;;29.30;12.82;;;;;;;;;;8300021;28;20100;-88
2023/01/04 01:21:59;;;;;;;34.35;13.93;;;;;;;;;;8299886;28;20053;-87
2023/01/04 01:26:02;;;;;;;28.58;13.98;;;;;;;;;;8299900;28;20557;-88
2023/01/04 01:30:08;;;;;;;29.58;14.45;;;;;;;;;;8299510;28;20072;-87
2023/01/04 01:34:10;;;;;;;29.20;12.75;;;;;;;;;;8299728;28;20076;-88
2023/01/04 01:38:13;;;;;;;28.77;14.60;;;;;;;;;;8286652;28;20050;-88
2023/01/04 01:42:21;;;;;;;38.33;15.93;;;;;;;;;;8299294;28;20046;-87
2023/01/04 01:46:29;;;;;;;33.85;13.60;;;;;;;;;;8299116;28;20060;-87
2023/01/04 01:50:35;;;;;;;44.00;17.05;;;;;;;;;;8298179;28;20502;-87
2023/01/04 01:54:42;;;;;;;45.97;17.30;;;;;;;;;;8299041;28;20048;-87
2023/01/04 01:58:52;;;;;;;33.15;13.20;;;;;;;;;;8298863;28;20100;-87
2023/01/04 02:03:09;;;;;;;30.85;14.77;;;;;;;;;;8298769;28;20532;-87
2023/01/04 02:07:15;;;;;;;32.15;13.90;;;;;;;;;;8298526;28;20080;-88
2023/01/04 02:11:18;;;;;;;26.05;12.10;;;;;;;;;;8286397;28;20048;-88
2023/01/04 02:15:25;;;;;;;25.40;11.10;;;;;;;;;;8297514;28;20110;-88
2023/01/04 02:20:02;;;;;;;29.83;15.00;;;;;;;;;;8298331;28;20368;-87
2023/01/04 02:24:34;;;;;;;31.30;13.02;;;;;;;;;;8298162;28;20129;-88
2023/01/04 02:28:54;;;;;;;24.70;13.07;;;;;;;;;;8297998;28;20128;-88
2023/01/04 02:33:11;;;;;;;25.48;11.45;;;;;;;;;;8283791;28;20044;-88
2023/01/04 02:37:20;;;;;;;29.20;12.45;;;;;;;;;;8277979;28;20128;-87
2023/01/04 02:41:29;;;;;;;55.53;17.15;;;;;;;;;;8281509;28;20047;-88
2023/01/04 02:45:39;;;;;;;26.23;12.65;;;;;;;;;;8287104;28;20103;-91
2023/01/04 02:54:06;;;;;;;24.90;11.32;;;;;;;;;;8267882;28;20227;-87
2023/01/04 02:58:22;;;;;;;28.10;10.77;;;;;;;;;;8274565;28;20058;-87
2023/01/04 03:07:13;;;;;;;27.88;10.70;;;;;;;;;;8264584;28;20046;-91
2023/01/04 03:15:40;;;;;;;23.35;10.60;;;;;;;;;;8295264;28;20096;-87
2023/01/04 03:19:54;;;;;;;25.05;11.18;;;;;;;;;;8294608;28;20149;-87
2023/01/04 03:37:27;;;;;;;27.35;10.88;;;;;;;;;;8230750;28;20057;-87
2023/01/04 03:50:29;;;;;;;23.42;11.35;;;;;;;;;;8296195;28;20133;-87
2023/01/04 03:54:36;;;;;;;21.25;9.85;;;;;;;;;;8296170;28;20038;-87
2023/01/04 03:58:40;;;;;;;28.80;10.52;;;;;;;;;;8296006;28;20482;-86
2023/01/04 04:02:46;;;;;;;25.90;11.00;;;;;;;;;;8295848;28;20038;-87
2023/01/04 04:15:26;;;;;;;26.13;10.65;;;;;;;;;;8297813;28;20060;-87
2023/01/04 04:19:29;;;;;;;26.13;11.35;;;;;;;;;;8301606;28;20042;-86
2023/01/04 04:23:31;;;;;;;22.02;9.35;;;;;;;;;;8301583;28;20402;-86
2023/01/04 04:27:34;;;;;;;22.77;10.23;;;;;;;;;;8301637;28;20058;-87
2023/01/04 04:31:39;;;;;;;25.33;10.25;;;;;;;;;;8301280;28;20046;-87
2023/01/04 04:35:42;;;;;;;24.50;11.57;;;;;;;;;;8301253;28;20478;-87
2023/01/04 04:39:44;;;;;;;28.40;13.88;;;;;;;;;;8301044;28;20129;-87
2023/01/04 04:43:47;;;;;;;29.85;12.23;;;;;;;;;;8301013;28;20046;-87
2023/01/04 04:47:51;;;;;;;25.48;10.80;;;;;;;;;;8300859;28;20058;-87
2023/01/04 04:51:54;;;;;;;66.15;23.73;;;;;;;;;;8300940;28;20046;-86
2023/01/04 04:55:56;;;;;;;29.27;11.00;;;;;;;;;;8300557;28;20046;-86
2023/01/04 04:59:59;;;;;;;34.42;13.95;;;;;;;;;;8300522;28;20042;-86
2023/01/04 05:04:04;;;;;;;35.47;13.68;;;;;;;;;;8300334;28;20046;-86
2023/01/04 05:08:07;;;;;;;31.48;12.57;;;;;;;;;;8300360;28;20046;-86
2023/01/04 05:16:33;;;;;;;30.92;14.10;;;;;;;;;;8282920;28;20123;-86
2023/01/04 05:20:38;;;;;;;35.75;16.98;;;;;;;;;;8300461;28;20478;-86
2023/01/04 05:24:41;;;;;;;34.00;16.52;;;;;;;;;;8299567;28;20046;-86
2023/01/04 05:28:43;;;;;;;29.95;12.50;;;;;;;;;;8298904;28;20402;-86
2023/01/04 05:32:46;;;;;;;32.85;14.23;;;;;;;;;;8299536;28;20136;-86
2023/01/04 05:36:50;;;;;;;39.47;17.00;;;;;;;;;;8299459;28;20078;-86
2023/01/04 05:40:54;;;;;;;52.65;22.38;;;;;;;;;;8299108;28;20617;-89
2023/01/04 05:44:58;;;;;;;36.10;14.43;;;;;;;;;;8299102;28;20085;-85
2023/01/04 05:49:01;;;;;;;37.40;15.38;;;;;;;;;;8299320;28;20107;-86
2023/01/04 05:53:06;;;;;;;51.88;20.08;;;;;;;;;;8298832;28;20081;-87
2023/01/04 05:57:09;;;;;;;86.03;29.42;;;;;;;;;;8298717;28;20046;-87
2023/01/04 06:01:11;;;;;;;116.45;36.83;;;;;;;;;;8298859;28;20430;-87
2023/01/04 06:05:14;;;;;;;167.77;49.58;;;;;;;;;;8298496;28;20129;-87
2023/01/04 06:09:18;;;;;;;167.80;48.72;;;;;;;;;;8298352;28;20073;-86
2023/01/04 06:13:21;;;;;;;167.50;54.70;;;;;;;;;;8285092;28;20121;-86
2023/01/04 06:17:24;;;;;;;181.90;56.35;;;;;;;;;;8298301;28;20137;-86
2023/01/04 06:21:27;;;;;;;243.13;80.38;;;;;;;;;;8297843;28;20129;-86
2023/01/04 06:25:31;;;;;;;146.60;47.78;;;;;;;;;;8298146;28;20050;-86
2023/01/04 06:29:34;;;;;;;114.15;38.92;;;;;;;;;;8297827;28;20053;-86
2023/01/04 06:33:37;;;;;;;46.75;19.60;;;;;;;;;;8297746;28;20042;-86
2023/01/04 06:37:40;;;;;;;37.70;15.57;;;;;;;;;;8297225;28;20474;-87
2023/01/04 06:41:45;;;;;;;45.40;17.20;;;;;;;;;;8297795;28;20042;-87
2023/01/04 06:45:48;;;;;;;41.10;17.15;;;;;;;;;;8297419;28;20064;-87
2023/01/04 06:49:50;;;;;;;58.55;23.05;;;;;;;;;;8297475;28;20038;-87
2023/01/04 06:53:53;;;;;;;72.40;27.95;;;;;;;;;;8297064;28;20044;-87
2023/01/04 06:57:58;;;;;;;58.72;21.55;;;;;;;;;;8297150;28;20517;-87
2023/01/04 07:02:00;;;;;;;62.83;23.40;;;;;;;;;;8296819;28;20475;-87
2023/01/04 07:06:06;;;;;;;52.45;20.88;;;;;;;;;;8296847;28;20057;-87
2023/01/04 07:10:09;;;;;;;55.05;21.83;;;;;;;;;;8297016;28;20045;-87
2023/01/04 07:14:13;;;;;;;43.55;19.25;;;;;;;;;;8296648;28;20073;-87
2023/01/04 07:18:16;;;;;;;62.25;22.55;;;;;;;;;;8283380;28;20401;-86
2023/01/04 07:22:19;;;;;;;62.05;29.58;;;;;;;;;;8296519;28;20054;-87
2023/01/04 07:26:22;;;;;;;92.75;43.13;;;;;;;;;;8283309;28;20174;-87
2023/01/04 07:30:26;;;;;;;40.15;19.02;;;;;;;;;;8296474;28;20133;-88
2023/01/04 07:34:30;;;;;;;40.85;18.52;;;;;;;;;;8296359;28;20584;-88
2023/01/04 07:38:33;;;;;;;57.15;25.85;;;;;;;;;;8296757;28;20433;-87
2023/01/04 07:42:36;;;;;;;43.75;20.33;;;;;;;;;;8296148;28;20053;-87
2023/01/04 07:46:42;;;;;;;91.32;33.90;;;;;;;;;;8296202;28;20107;-87
2023/01/04 07:50:45;;;;;;;73.00;27.73;;;;;;;;;;8300322;28;20046;-87
2023/01/04 07:54:48;;;;;;;94.95;40.00;;;;;;;;;;8302614;28;20048;-88
2023/01/04 07:58:55;;;;;;;75.07;37.05;;;;;;;;;;8302415;28;20489;-88
2023/01/04 08:03:00;;;;;;;83.68;36.78;;;;;;;;;;8302624;28;20482;-88
2023/01/04 08:07:03;;;;;;;75.40;33.50;;;;;;;;;;8297648;28;20042;-90
2023/01/04 08:11:08;;;;;;;53.80;23.88;;;;;;;;;;8265518;28;20050;-90
2023/01/04 08:15:13;;;;;;;40.80;15.68;;;;;;;;;;8276273;28;20395;-89
2023/01/04 08:19:20;;;;;;;44.72;20.75;;;;;;;;;;8279096;28;20529;-89
2023/01/04 08:23:23;;;;;;;40.72;18.45;;;;;;;;;;8266689;28;20046;-88
2023/01/04 08:27:26;;;;;;;60.05;25.20;;;;;;;;;;8277783;28;20125;-88
2023/01/04 08:31:30;;;;;;;59.08;26.83;;;;;;;;;;8268204;28;20046;-88
2023/01/04 08:35:35;;;;;;;51.15;22.80;;;;;;;;;;8273853;28;20069;-89
2023/01/04 08:39:39;;;;;;;65.60;31.08;;;;;;;;;;8269111;28;20498;-88
2023/01/04 08:43:41;;;;;;;57.40;26.15;;;;;;;;;;8264837;28;20051;-88
2023/01/04 08:47:44;;;;;;;116.10;45.50;;;;;;;;;;8267481;28;20065;-88
2023/01/04 08:51:49;;;;;;;77.22;35.25;;;;;;;;;;8264244;28;20499;-87
2023/01/04 08:55:53;;;;;;;115.68;36.15;;;;;;;;;;8278193;28;20060;-86
2023/01/04 08:59:55;;;;;;;78.00;30.60;;;;;;;;;;8266976;28;20514;-86
2023/01/04 09:03:58;;;;;;;48.75;21.73;;;;;;;;;;8267327;28;20054;-86
2023/01/04 09:08:03;;;;;;;61.40;24.50;;;;;;;;;;8266270;28;20483;-87
2023/01/04 09:12:06;;;;;;;51.70;20.58;;;;;;;;;;8268222;28;20085;-87
2023/01/04 09:16:11;;;;;;;43.22;18.13;;;;;;;;;;8264134;28;20072;-87
2023/01/04 09:20:13;;;;;;;61.25;23.85;;;;;;;;;;8271382;28;20050;-88
2023/01/04 09:24:18;;;;;;;58.63;23.80;;;;;;;;;;8274671;28;20200;-87
2023/01/04 09:28:21;;;;;;;28.77;12.95;;;;;;;;;;8276568;28;20498;-86
2023/01/04 09:32:24;;;;;;;46.45;18.58;;;;;;;;;;8272845;28;20069;-87
2023/01/04 09:36:27;;;;;;;88.88;28.60;;;;;;;;;;8262393;28;20060;-87
2023/01/04 09:40:40;;;;;;;82.05;29.35;;;;;;;;;;8274596;28;20049;-88
2023/01/04 09:44:46;;;;;;;47.13;20.65;;;;;;;;;;8273291;28;20460;-87
2023/01/04 09:48:53;;;;;;;57.20;24.83;;;;;;;;;;8265968;28;20490;-88
2023/01/04 09:53:03;;;;;;;27.95;13.82;;;;;;;;;;8265597;28;20125;-87
2023/01/04 09:57:17;;;;;;;57.20;22.50;;;;;;;;;;8268642;28;20052;-88
2023/01/04 10:01:24;;;;;;;57.78;23.90;;;;;;;;;;8274094;28;20391;-88
2023/01/04 10:05:30;;;;;;;50.20;22.55;;;;;;;;;;8266531;28;20038;-87
2023/01/04 10:09:34;;;;;;;30.45;14.18;;;;;;;;;;8264410;28;20793;-87
2023/01/04 10:13:56;;;;;;;42.55;19.48;;;;;;;;;;8260591;28;20049;-86
2023/01/04 10:18:11;;;;;;;54.13;23.85;;;;;;;;;;8268097;28;20446;-86
2023/01/04 10:22:20;;;;;;;54.15;23.52;;;;;;;;;;8263861;28;20046;-86
2023/01/04 10:26:27;;;;;;;38.50;18.92;;;;;;;;;;8275777;28;20132;-89
2023/01/04 10:30:36;;;;;;;29.98;15.18;;;;;;;;;;8262342;28;20048;-89
2023/01/04 10:34:43;;;;;;;32.92;17.90;;;;;;;;;;8264886;28;20465;-86
2023/01/04 10:38:47;;;;;;;33.53;16.50;;;;;;;;;;8266333;28;20072;-88
2023/01/04 10:43:00;;;;;;;35.20;15.32;;;;;;;;;;8268336;28;20049;-89
2023/01/04 10:47:07;;;;;;;;;;;;;;;;;;8302668;28;20058;-88
2023/01/04 10:51:13;;;;;;;30.55;14.50;;;;;;;;;;8291089;28;19944;-87
2023/01/04 10:55:22;;;;;;;38.95;17.40;;;;;;;;;;8297174;28;20050;-88
2023/01/04 10:59:35;;;;;;;23.20;12.85;;;;;;;;;;8297233;28;20041;-88
2023/01/04 11:03:47;;;;;;;28.10;14.10;;;;;;;;;;8288109;28;20111;-86
2023/01/04 11:07:55;;;;;;;35.50;15.82;;;;;;;;;;8283867;28;20065;-88
2023/01/04 11:11:58;;;;;;;25.73;14.82;;;;;;;;;;8295065;28;20461;-87
2023/01/04 11:16:04;;;;;;;33.28;15.88;;;;;;;;;;8296949;28;20050;-87
2023/01/04 11:20:09;;;;;;;31.88;14.05;;;;;;;;;;8296384;28;20135;-86
2023/01/04 11:24:14;;;;;;;26.35;11.98;;;;;;;;;;8288086;28;20069;-89
2023/01/04 11:28:21;;;;;;;33.00;15.18;;;;;;;;;;8292714;28;20056;-88
2023/01/04 11:32:36;;;;;;;25.33;12.63;;;;;;;;;;8296776;28;20520;-89
2023/01/04 11:36:41;;;;;;;31.15;14.07;;;;;;;;;;8284010;28;20087;-89
2023/01/04 11:40:56;;;;;;;34.60;16.45;;;;;;;;;;8296415;28;20041;-88
2023/01/04 11:44:59;;;;;;;29.00;15.45;;;;;;;;;;8282935;28;20073;-89
2023/01/04 11:49:02;;;;;;;48.50;20.77;;;;;;;;;;8296371;28;20049;-87
2023/01/04 11:53:23;;;;;;;25.83;13.95;;;;;;;;;;8296090;28;20471;-88
2023/01/04 11:57:26;;;;;;;30.87;14.47;;;;;;;;;;8291760;28;20060;-88
2023/01/04 12:01:29;;;;;;;32.90;14.48;;;;;;;;;;8287584;28;20292;-89
2023/01/04 12:05:32;;;;;;;30.30;13.05;;;;;;;;;;8288453;28;20464;-88
2023/01/04 12:09:37;;;;;;;28.25;13.40;;;;;;;;;;8296108;28;20137;-90
2023/01/04 12:13:40;;;;;;;31.58;13.23;;;;;;;;;;8270216;28;20050;-88
2023/01/04 12:17:50;;;;;;;23.48;11.57;;;;;;;;;;8272304;28;20042;-93
2023/01/04 12:21:56;;;;;;;23.90;11.02;;;;;;;;;;8281123;28;20044;-89
2023/01/04 12:26:01;;;;;;;37.65;18.40;;;;;;;;;;8295745;28;20045;-89
2023/01/04 12:30:08;;;;;;;37.03;17.25;;;;;;;;;;8295625;28;20095;-88
2023/01/04 12:34:42;;;;;;;44.92;20.90;;;;;;;;;;8295590;28;20050;-89
2023/01/04 12:39:04;;;;;;;23.25;11.65;;;;;;;;;;8273651;28;20050;-89
2023/01/04 12:43:24;;;;;;;29.23;14.30;;;;;;;;;;8269729;28;20477;-88
2023/01/04 12:52:38;;;;;;;30.20;15.48;;;;;;;;;;8277860;28;20121;-89
2023/01/04 12:57:24;;;;;;;10.25;5.35;;;;;;;;;;8280709;28;20049;-89
2023/01/04 13:01:30;;;;;;;33.75;16.27;;;;;;;;;;8192203;29;20126;-88
2023/01/04 13:05:35;;;;;;;29.45;14.38;;;;;;;;;;8188341;29;20147;-87
2023/01/04 13:09:43;;;;;;;28.65;13.55;;;;;;;;;;8183242;29;20114;-89
2023/01/04 13:13:55;;;;;;;26.23;12.32;;;;;;;;;;8186289;29;20134;-90
2023/01/04 13:18:00;;;;;;;28.27;12.73;;;;;;;;;;8202774;28;20063;-89
2023/01/04 13:22:09;;;;;;;24.55;11.38;;;;;;;;;;8175560;29;20048;-89
2023/01/04 13:26:28;;;;;;;18.50;8.95;;;;;;;;;;8209092;28;20059;-89
2023/01/04 13:30:34;;;;;;;22.92;10.80;;;;;;;;;;8195224;28;20066;-88
2023/01/04 13:34:43;;;;;;;15.93;8.38;;;;;;;;;;8264251;28;20505;-90
2023/01/04 13:38:46;;;;;;;19.48;9.60;;;;;;;;;;8269084;28;20053;-89
2023/01/04 13:42:52;;;;;;;17.25;9.27;;;;;;;;;;8269101;28;20451;-90
2023/01/04 13:46:56;;;;;;;15.40;8.27;;;;;;;;;;8261287;28;20066;-90
2023/01/04 13:51:02;;;;;;;17.63;8.80;;;;;;;;;;8274567;28;20428;-89
2023/01/04 13:55:12;;;;;;;15.82;8.75;;;;;;;;;;8268456;28;20074;-90
2023/01/04 13:59:15;;;;;;;56.97;25.05;;;;;;;;;;8273321;28;20161;-88
2023/01/04 14:03:27;;;;;;;15.43;8.27;;;;;;;;;;8271092;28;20157;-89
2023/01/04 14:07:32;;;;;;;14.02;8.32;;;;;;;;;;8256941;28;20038;-90
2023/01/04 14:12:00;;;;;;;16.73;7.97;;;;;;;;;;8280146;28;20050;-89
2023/01/04 14:16:12;;;;;;;12.80;5.88;;;;;;;;;;8272553;28;20528;-89
2023/01/04 14:20:42;;;;;;;16.08;7.40;;;;;;;;;;8257188;28;20061;-89
2023/01/04 14:24:46;;;;;;;13.05;6.22;;;;;;;;;;8241562;28;20108;-88
2023/01/04 14:28:49;;;;;;;17.40;5.50;;;;;;;;;;8263250;28;20041;-87
2023/01/04 14:32:58;;;;;;;11.55;6.20;;;;;;;;;;8272584;28;20062;-89
2023/01/04 14:37:04;;;;;;;14.45;6.93;;;;;;;;;;8269875;28;20054;-89
2023/01/04 14:41:19;;;;;;;11.30;4.78;;;;;;;;;;8281068;28;20530;-88
2023/01/04 14:45:21;;;;;;;12.27;5.68;;;;;;;;;;8279982;28;20478;-87
2023/01/04 14:49:27;;;;;;;15.90;6.07;;;;;;;;;;8287163;28;20048;-87
2023/01/04 14:53:29;;;;;;;13.20;5.80;;;;;;;;;;8283944;28;20058;-88
2023/01/04 14:57:37;;;;;;;10.20;5.63;;;;;;;;;;8281743;28;20052;-88
2023/01/04 15:01:40;;;;;;;11.68;5.35;;;;;;;;;;8274209;28;20490;-89
2023/01/04 15:05:45;;;;;;;9.05;4.85;;;;;;;;;;8288083;28;20450;-88
2023/01/04 15:09:48;;;;;;;18.35;11.30;;;;;;;;;;8296961;28;20128;-88
2023/01/04 15:13:53;;;;;;;39.92;18.77;;;;;;;;;;8282703;28;20057;-88
2023/01/04 15:17:56;;;;;;;11.70;6.07;;;;;;;;;;8290016;28;20125;-88
2023/01/04 15:21:58;;;;;;;14.93;8.07;;;;;;;;;;8276168;28;20423;-88
2023/01/04 15:26:05;;;;;;;12.57;5.90;;;;;;;;;;8280735;28;20052;-89
2023/01/04 15:30:12;;;;;;;16.15;7.65;;;;;;;;;;8286259;28;20834;-88
2023/01/04 15:34:16;;;;;;;21.83;11.73;;;;;;;;;;8281562;28;20137;-89
2023/01/04 15:38:19;;;;;;;16.58;9.32;;;;;;;;;;8279725;28;20074;-88
2023/01/04 15:46:46;;;;;;;9.23;5.47;;;;;;;;;;8248238;28;20433;-90
2023/01/04 15:50:49;;;;;;;18.27;12.93;;;;;;;;;;8268631;28;20042;-90
2023/01/04 15:54:52;;;;;;;17.00;10.85;;;;;;;;;;8271910;28;20077;-89
2023/01/04 15:58:55;;;;;;;22.95;12.95;;;;;;;;;;8265673;28;20133;-88
2023/01/04 16:03:00;;;;;;;23.85;11.82;;;;;;;;;;8263658;28;20046;-88
2023/01/04 16:07:03;;;;;;;14.25;7.18;;;;;;;;;;8263337;28;20054;-88
2023/01/04 16:11:13;;;;;;;13.63;7.72;;;;;;;;;;8268730;28;20049;-88
2023/01/04 16:15:18;;;;;;;17.23;8.95;;;;;;;;;;8271542;28;20038;-90
2023/01/04 16:19:23;;;;;;;20.73;10.90;;;;;;;;;;8270290;28;20410;-89
2023/01/04 16:23:27;;;;;;;16.33;7.75;;;;;;;;;;8267149;28;20073;-87
2023/01/04 16:27:32;;;;;;;20.95;10.50;;;;;;;;;;8269348;28;20046;-87
2023/01/04 16:31:36;;;;;;;13.70;7.43;;;;;;;;;;8274765;28;20191;-87
2023/01/04 16:35:40;;;;;;;17.17;8.63;;;;;;;;;;8286422;28;20130;-87
2023/01/04 16:39:43;;;;;;;21.92;10.68;;;;;;;;;;8270266;28;20121;-87
2023/01/04 16:43:47;;;;;;;20.70;9.32;;;;;;;;;;8269477;28;20042;-87
2023/01/04 16:47:52;;;;;;;21.20;10.50;;;;;;;;;;8266679;28;20137;-86
2023/01/04 16:51:57;;;;;;;31.48;15.00;;;;;;;;;;8273755;28;20069;-86
2023/01/04 16:56:03;;;;;;;23.20;10.65;;;;;;;;;;8271588;28;20043;-88
2023/01/04 17:00:08;;;;;;;42.05;16.27;;;;;;;;;;8266264;28;20084;-86
2023/01/04 17:04:12;;;;;;;38.70;14.98;;;;;;;;;;8270750;28;20053;-86
2023/01/04 17:08:16;;;;;;;23.90;13.57;;;;;;;;;;8266432;28;20129;-86
2023/01/04 17:12:21;;;;;;;14.73;7.85;;;;;;;;;;8270825;28;20034;-89
2023/01/04 17:16:25;;;;;;;16.80;9.10;;;;;;;;;;8267740;28;20054;-87
2023/01/04 17:20:29;;;;;;;15.18;8.48;;;;;;;;;;8273789;28;20080;-86
2023/01/04 17:24:34;;;;;;;7.70;3.53;;;;;;;;;;8267521;28;20133;-87
2023/01/04 17:28:38;;;;;;;17.00;9.93;;;;;;;;;;8266842;28;20484;-87
2023/01/04 17:32:43;;;;;;;11.63;6.25;;;;;;;;;;8281815;28;20513;-86
2023/01/04 17:36:48;;;;;;;14.43;7.32;;;;;;;;;;8266228;28;20122;-86
2023/01/04 17:40:53;;;;;;;12.60;6.32;;;;;;;;;;8265814;28;20073;-86
2023/01/04 17:44:57;;;;;;;19.75;8.45;;;;;;;;;;8264939;28;20058;-87
2023/01/04 17:49:03;;;;;;;15.18;7.97;;;;;;;;;;8274141;28;20128;-86
2023/01/04 17:53:06;;;;;;;21.25;9.30;;;;;;;;;;8267742;28;20125;-90
2023/01/04 17:57:10;;;;;;;13.80;6.53;;;;;;;;;;8281796;28;20046;-85
2023/01/04 18:01:16;;;;;;;13.98;7.57;;;;;;;;;;8277490;28;20046;-89
2023/01/04 18:05:20;;;;;;;16.75;8.57;;;;;;;;;;8294809;28;20470;-88
2023/01/04 18:09:25;;;;;;;18.42;9.85;;;;;;;;;;8298303;28;20550;-87
2023/01/04 18:13:34;;;;;;;13.65;7.45;;;;;;;;;;8290352;28;20050;-87
2023/01/04 18:17:37;;;;;;;22.13;11.23;;;;;;;;;;8299400;28;20088;-88
2023/01/04 18:21:40;;;;;;;18.60;10.93;;;;;;;;;;8279005;28;20049;-86
2023/01/04 18:25:44;;;;;;;14.32;7.07;;;;;;;;;;8287975;28;20045;-86
2023/01/04 18:29:49;;;;;;;17.75;8.77;;;;;;;;;;8264369;28;20479;-85
2023/01/04 18:33:56;;;;;;;17.85;10.02;;;;;;;;;;8271172;28;20046;-86
2023/01/04 18:38:00;;;;;;;12.73;6.05;;;;;;;;;;8265734;28;20061;-87
2023/01/04 18:42:04;;;;;;;14.65;7.53;;;;;;;;;;8264639;28;20096;-89
2023/01/04 18:46:11;;;;;;;13.57;6.65;;;;;;;;;;8271638;28;20101;-87
2023/01/04 18:50:19;;;;;;;19.85;9.55;;;;;;;;;;8268623;28;20046;-88
2023/01/04 18:54:23;;;;;;;14.30;6.65;;;;;;;;;;8271598;28;20449;-86
2023/01/04 18:58:33;;;;;;;20.50;10.02;;;;;;;;;;8264260;28;20547;-86
2023/01/04 19:02:39;;;;;;;13.48;7.68;;;;;;;;;;8246679;28;20465;-87
2023/01/04 19:06:43;;;;;;;18.38;7.65;;;;;;;;;;8263956;28;20042;-92
2023/01/04 19:10:47;;;;;;;14.60;7.75;;;;;;;;;;8274396;28;20455;-88
2023/01/04 19:14:52;;;;;;;17.92;8.82;;;;;;;;;;8296122;28;20067;-91
2023/01/04 19:18:58;;;;;;;14.40;6.40;;;;;;;;;;8290719;28;20181;-87
2023/01/04 19:23:02;;;;;;;12.63;6.10;;;;;;;;;;8285642;28;20042;-87
2023/01/04 19:27:08;;;;;;;16.70;8.45;;;;;;;;;;8281524;28;20152;-86
2023/01/04 19:31:15;;;;;;;13.15;7.38;;;;;;;;;;8282828;28;20046;-86
2023/01/04 19:35:20;;;;;;;14.27;6.90;;;;;;;;;;8288329;28;20141;-89
2023/01/04 19:39:23;;;;;;;15.18;7.63;;;;;;;;;;8266343;28;20387;-86
2023/01/04 19:43:27;;;;;;;15.77;8.18;;;;;;;;;;8285812;28;20049;-87
2023/01/04 19:47:32;;;;;;;13.23;6.38;;;;;;;;;;8275148;28;20442;-86
2023/01/04 19:51:38;;;;;;;14.43;6.80;;;;;;;;;;8276126;28;20594;-88
2023/01/04 19:55:47;;;;;;;14.27;7.47;;;;;;;;;;8289289;28;20041;-87
2023/01/04 19:59:51;;;;;;;14.07;7.63;;;;;;;;;;8285128;28;20088;-86
2023/01/04 20:03:55;;;;;;;14.00;7.72;;;;;;;;;;8279078;28;20087;-86
2023/01/04 20:08:00;;;;;;;12.65;5.60;;;;;;;;;;8274500;28;20050;-87
2023/01/04 20:12:05;;;;;;;11.13;6.82;;;;;;;;;;8287894;28;20733;-86
2023/01/04 20:16:13;;;;;;;12.63;6.88;;;;;;;;;;8272125;28;20056;-91
2023/01/04 20:20:20;;;;;;;11.90;6.68;;;;;;;;;;8288915;28;20128;-88
2023/01/04 20:24:30;;;;;;;10.82;5.50;;;;;;;;;;8287993;28;20049;-87
2023/01/04 20:28:35;;;;;;;13.75;6.25;;;;;;;;;;8294515;28;20073;-85
2023/01/04 20:32:39;;;;;;;9.30;5.55;;;;;;;;;;8283529;28;20053;-85
2023/01/04 20:36:42;;;;;;;11.05;6.50;;;;;;;;;;8301500;28;20071;-85
2023/01/04 20:40:48;;;;;;;12.55;5.20;;;;;;;;;;8286214;28;20474;-85
2023/01/04 20:44:55;;;;;;;8.60;4.85;;;;;;;;;;8272645;28;20054;-86
2023/01/04 20:49:01;;;;;;;13.02;5.82;;;;;;;;;;8301034;28;20171;-89
2023/01/04 20:53:07;;;;;;;11.38;5.68;;;;;;;;;;8293326;28;20046;-85
2023/01/04 20:57:15;;;;;;;11.57;6.50;;;;;;;;;;8295760;28;20038;-86
2023/01/04 21:01:20;;;;;;;10.70;5.90;;;;;;;;;;8300788;28;20387;-86
2023/01/04 21:05:23;;;;;;;10.98;5.45;;;;;;;;;;8300371;28;20057;-86
2023/01/04 21:09:26;;;;;;;11.43;5.82;;;;;;;;;;8300477;28;20121;-86
2023/01/04 21:13:33;;;;;;;11.55;6.72;;;;;;;;;;8300386;28;20050;-86
2023/01/04 21:17:37;;;;;;;15.48;6.60;;;;;;;;;;8300499;28;20058;-85
2023/01/04 21:21:43;;;;;;;10.93;5.28;;;;;;;;;;8282799;28;20041;-84
2023/01/04 21:25:48;;;;;;;8.93;4.57;;;;;;;;;;8300153;28;20804;-87
2023/01/04 21:29:53;;;;;;;10.68;6.20;;;;;;;;;;8299857;28;20054;-85
2023/01/04 21:33:56;;;;;;;10.88;6.88;;;;;;;;;;8300183;28;20042;-87
2023/01/04 21:38:03;;;;;;;11.10;6.45;;;;;;;;;;8299706;28;20046;-87
2023/01/04 21:42:05;;;;;;;10.93;6.32;;;;;;;;;;8299452;28;20053;-87
2023/01/04 21:46:13;;;;;;;8.38;5.45;;;;;;;;;;8298787;28;20064;-87
2023/01/04 21:50:16;;;;;;;11.75;6.22;;;;;;;;;;8299132;28;20046;-91
2023/01/04 21:54:19;;;;;;;11.52;6.00;;;;;;;;;;8299105;28;20045;-88
2023/01/04 21:58:23;;;;;;;9.52;5.38;;;;;;;;;;8288730;28;20055;-88
2023/01/04 22:02:27;;;;;;;10.75;5.15;;;;;;;;;;8297577;28;20042;-87
2023/01/04 22:06:31;;;;;;;10.07;5.70;;;;;;;;;;8277177;28;20107;-87
2023/01/04 22:10:34;;;;;;;10.85;6.32;;;;;;;;;;8297456;28;20065;-86
2023/01/04 22:14:37;;;;;;;9.07;5.70;;;;;;;;;;8298409;28;20042;-85
2023/01/04 22:18:44;;;;;;;10.45;5.57;;;;;;;;;;8298348;28;20112;-86
2023/01/04 22:22:47;;;;;;;11.45;6.13;;;;;;;;;;8298535;28;20075;-86
2023/01/04 22:26:52;;;;;;;9.95;5.60;;;;;;;;;;8298025;28;20068;-87
2023/01/04 22:30:55;;;;;;;8.55;4.90;;;;;;;;;;8298136;28;20053;-86
2023/01/04 22:34:59;;;;;;;10.02;4.18;;;;;;;;;;8296262;28;20050;-84
2023/01/04 22:39:02;;;;;;;8.02;4.93;;;;;;;;;;8280042;28;20451;-89
2023/01/04 22:43:06;;;;;;;8.18;4.65;;;;;;;;;;8276756;28;20514;-85
2023/01/04 22:47:09;;;;;;;11.07;5.45;;;;;;;;;;8292364;28;20093;-87
2023/01/04 22:51:15;;;;;;;6.25;3.63;;;;;;;;;;8292080;28;20483;-86
2023/01/04 22:55:18;;;;;;;6.95;4.22;;;;;;;;;;8290583;28;20095;-90
2023/01/04 22:59:22;;;;;;;8.77;5.78;;;;;;;;;;8286926;28;20065;-86
2023/01/04 23:03:24;;;;;;;8.30;5.13;;;;;;;;;;8284319;28;20045;-87
2023/01/04 23:07:29;;;;;;;8.60;5.43;;;;;;;;;;8284474;28;20052;-88
2023/01/04 23:11:33;;;;;;;8.23;4.30;;;;;;;;;;8265713;28;20049;-87
2023/01/04 23:15:37;;;;;;;11.52;5.20;;;;;;;;;;8275669;28;20552;-88
2023/01/04 23:19:40;;;;;;;10.68;5.47;;;;;;;;;;8269421;28;20047;-88
2023/01/04 23:23:49;;;;;;;10.85;5.78;;;;;;;;;;8296904;28;20145;-89
2023/01/04 23:27:52;;;;;;;6.68;4.80;;;;;;;;;;8296585;28;20045;-89
2023/01/04 23:31:55;;;;;;;8.02;4.78;;;;;;;;;;8283396;28;20052;-89
2023/01/04 23:36:07;;;;;;;7.70;4.85;;;;;;;;;;8296501;28;20053;-88
2023/01/04 23:40:12;;;;;;;6.60;4.20;;;;;;;;;;8293780;28;20466;-87
2023/01/04 23:44:20;;;;;;;10.02;4.75;;;;;;;;;;8292561;28;20125;-88
2023/01/04 23:48:23;;;;;;;8.40;4.90;;;;;;;;;;8286824;28;20055;-88
2023/01/04 23:52:26;;;;;;;9.13;5.15;;;;;;;;;;8294763;28;20062;-88
2023/01/04 23:56:31;;;;;;;9.60;5.35;;;;;;;;;;8274127;28;20054;-89
